createdAt,value
2018-07-25T00:00:38.740Z,99.90
2018-07-25T00:03:10.809Z,99.90
2018-07-25T00:05:39.066Z,99.90
2018-07-25T00:08:07.303Z,99.90
2018-07-25T00:10:40.908Z,99.90
2018-07-25T00:13:09.492Z,99.90
2018-07-25T00:15:37.717Z,99.90
2018-07-25T00:18:05.995Z,99.90
2018-07-25T00:20:34.262Z,99.90
2018-07-25T00:23:02.695Z,99.90
2018-07-25T00:25:30.958Z,99.90
2018-07-25T00:27:59.200Z,99.90
2018-07-25T00:30:27.452Z,99.90
2018-07-25T00:32:55.652Z,99.90
2018-07-25T00:35:23.887Z,99.90
2018-07-25T00:37:52.102Z,99.90
2018-07-25T00:40:20.347Z,99.90
2018-07-25T00:42:48.982Z,99.90
2018-07-25T00:45:18.159Z,99.90
2018-07-25T00:47:46.387Z,99.90
2018-07-25T00:50:14.583Z,99.90
2018-07-25T00:52:43.201Z,99.90
2018-07-25T00:55:11.425Z,99.90
2018-07-25T00:57:39.684Z,99.90
2018-07-25T01:00:07.920Z,99.90
2018-07-25T01:02:47.387Z,99.90
2018-07-25T01:05:15.778Z,99.90
2018-07-25T01:07:44.422Z,99.90
2018-07-25T01:10:12.698Z,99.90
2018-07-25T01:12:40.936Z,99.90
2018-07-25T01:15:10.123Z,99.90
2018-07-25T01:17:50.300Z,99.90
2018-07-25T01:20:18.555Z,99.90
2018-07-25T01:22:46.776Z,99.90
2018-07-25T01:25:15.736Z,99.90
2018-07-25T01:27:44.003Z,99.90
2018-07-25T01:30:12.280Z,99.90
2018-07-25T01:32:40.572Z,99.90
2018-07-25T01:35:08.772Z,99.90
2018-07-25T01:37:37.137Z,99.90
2018-07-25T01:40:05.380Z,99.90
2018-07-25T01:42:33.604Z,99.90
2018-07-25T01:45:01.837Z,99.90
2018-07-25T01:47:30.064Z,99.90
2018-07-25T01:52:30.787Z,99.90
2018-07-25T01:54:59.180Z,99.90
2018-07-25T01:57:27.388Z,99.90
2018-07-25T01:59:55.616Z,99.90
2018-07-25T02:02:23.829Z,99.90
2018-07-25T02:04:52.032Z,99.90
2018-07-25T02:07:20.989Z,99.90
2018-07-25T02:09:49.868Z,99.90
2018-07-25T02:12:18.315Z,99.90
2018-07-25T02:14:46.550Z,99.90
2018-07-25T02:17:14.771Z,99.90
2018-07-25T02:19:43.040Z,99.90
2018-07-25T02:22:15.647Z,99.90
2018-07-25T02:24:44.024Z,99.90
2018-07-25T02:27:12.314Z,99.90
2018-07-25T02:29:40.552Z,99.90
2018-07-25T02:32:10.115Z,99.90
2018-07-25T02:34:38.389Z,99.90
2018-07-25T02:37:06.668Z,99.90
2018-07-25T02:42:02.889Z,99.90
2018-07-25T02:44:31.124Z,99.90
2018-07-25T02:46:59.345Z,99.90
2018-07-25T02:49:27.606Z,99.90
2018-07-25T02:52:00.607Z,99.90
2018-07-25T02:54:28.848Z,99.90
2018-07-25T02:56:57.230Z,99.90
2018-07-25T02:59:25.406Z,99.90
2018-07-25T03:01:54.571Z,99.90
2018-07-25T03:04:22.848Z,99.90
2018-07-25T03:07:03.673Z,99.90
2018-07-25T03:09:31.952Z,99.90
2018-07-25T03:12:00.239Z,99.90
2018-07-25T03:16:56.445Z,99.90
2018-07-25T03:19:24.721Z,99.90
2018-07-25T03:21:55.890Z,99.90
2018-07-25T03:24:24.151Z,99.90
2018-07-25T03:26:52.650Z,99.90
2018-07-25T03:29:22.154Z,99.90
2018-07-25T03:31:50.400Z,99.90
2018-07-25T03:34:18.652Z,99.90
2018-07-25T03:36:46.878Z,99.90
2018-07-25T03:39:15.128Z,99.90
2018-07-25T03:41:43.433Z,99.90
2018-07-25T03:44:11.681Z,99.90
2018-07-25T03:46:39.985Z,99.90
2018-07-25T03:49:08.668Z,99.90
2018-07-25T03:51:36.919Z,99.90
2018-07-25T03:54:06.430Z,99.90
2018-07-25T03:56:34.703Z,99.90
2018-07-25T03:59:02.981Z,99.90
2018-07-25T04:01:31.255Z,99.90
2018-07-25T04:04:00.121Z,99.90
2018-07-25T04:06:28.316Z,99.90
2018-07-25T04:08:56.696Z,99.90
2018-07-25T04:13:53.479Z,99.90
2018-07-25T04:16:21.754Z,99.90
2018-07-25T04:18:50.508Z,99.90
2018-07-25T04:21:22.099Z,99.90
2018-07-25T04:23:50.898Z,99.90
2018-07-25T04:26:19.161Z,99.90
2018-07-25T04:28:47.466Z,99.90
2018-07-25T04:31:15.713Z,99.90
2018-07-25T04:33:43.988Z,99.90
2018-07-25T04:36:15.028Z,99.90
2018-07-25T04:38:43.613Z,99.90
2018-07-25T04:41:11.897Z,99.90
2018-07-25T04:43:40.647Z,99.90
2018-07-25T04:46:09.071Z,99.90
2018-07-25T04:48:37.415Z,99.90
2018-07-25T04:51:05.718Z,99.90
2018-07-25T04:53:37.979Z,99.90
2018-07-25T04:56:06.520Z,99.90
2018-07-25T04:58:34.700Z,99.90
2018-07-25T05:01:02.925Z,99.90
2018-07-25T05:03:31.327Z,99.90
2018-07-25T05:06:00.489Z,99.90
2018-07-25T05:08:28.740Z,99.90
2018-07-25T05:10:57.016Z,99.90
2018-07-25T05:13:25.884Z,99.90
2018-07-25T05:15:54.079Z,99.90
2018-07-25T05:18:22.350Z,99.90
2018-07-25T05:20:50.636Z,99.90
2018-07-25T05:23:18.938Z,99.90
2018-07-25T05:25:47.214Z,99.90
2018-07-25T05:28:15.498Z,99.90
2018-07-25T05:30:44.824Z,99.90
2018-07-25T05:33:13.130Z,99.90
2018-07-25T05:35:41.340Z,99.90
2018-07-25T05:38:09.956Z,99.90
2018-07-25T05:40:38.206Z,99.90
2018-07-25T05:43:06.483Z,99.90
2018-07-25T05:45:34.697Z,99.90
2018-07-25T05:48:02.926Z,99.90
2018-07-25T05:50:31.412Z,99.90
2018-07-25T05:53:02.972Z,99.90
2018-07-25T05:57:59.415Z,99.90
2018-07-25T06:00:27.648Z,99.90
2018-07-25T06:02:56.413Z,99.90
2018-07-25T06:05:24.634Z,99.90
2018-07-25T06:07:52.890Z,99.90
2018-07-25T06:10:21.115Z,99.90
2018-07-25T06:12:49.588Z,99.90
2018-07-25T06:18:48.681Z,99.90
2018-07-25T06:21:16.935Z,99.90
2018-07-25T06:23:45.438Z,99.90
2018-07-25T06:26:14.203Z,99.90
2018-07-25T06:28:42.470Z,99.90
2018-07-25T06:31:10.759Z,99.90
2018-07-25T06:33:38.965Z,99.90
2018-07-25T06:36:07.556Z,99.90
2018-07-25T06:38:35.757Z,99.00
2018-07-25T06:41:03.988Z,98.30
2018-07-25T06:43:32.256Z,99.90
2018-07-25T06:46:00.504Z,99.90
2018-07-25T06:48:28.740Z,99.90
2018-07-25T06:50:56.951Z,99.90
2018-07-25T06:53:35.416Z,99.90
2018-07-25T06:56:03.596Z,99.90
2018-07-25T06:58:32.196Z,99.90
2018-07-25T07:01:00.400Z,99.90
2018-07-25T07:05:57.339Z,99.90
2018-07-25T07:08:28.519Z,99.90
2018-07-25T07:10:56.716Z,99.90
2018-07-25T07:13:24.961Z,99.90
2018-07-25T07:15:53.154Z,99.90
2018-07-25T07:18:21.384Z,99.90
2018-07-25T07:20:49.597Z,99.90
2018-07-25T07:23:17.884Z,99.90
2018-07-25T07:25:46.132Z,99.90
2018-07-25T07:28:14.352Z,99.90
2018-07-25T07:30:42.723Z,99.90
2018-07-25T07:33:10.923Z,99.90
2018-07-25T07:35:39.312Z,99.90
2018-07-25T07:38:07.617Z,99.90
2018-07-25T07:40:43.654Z,99.90
2018-07-25T07:43:12.242Z,99.90
2018-07-25T07:45:40.509Z,99.90
2018-07-25T07:48:09.671Z,99.90
2018-07-25T07:50:38.048Z,99.90
2018-07-25T07:53:06.302Z,99.90
2018-07-25T07:55:38.191Z,99.90
2018-07-25T07:58:06.382Z,99.90
2018-07-25T08:03:03.241Z,99.90
2018-07-25T08:05:31.871Z,99.90
2018-07-25T08:08:00.083Z,99.90
2018-07-25T08:10:35.701Z,99.90
2018-07-25T08:13:03.868Z,99.90
2018-07-25T08:15:32.109Z,99.90
2018-07-25T08:18:00.436Z,99.90
2018-07-25T08:20:28.644Z,99.90
2018-07-25T08:22:56.823Z,99.90
2018-07-25T08:25:36.877Z,99.90
2018-07-25T08:28:05.057Z,99.90
2018-07-25T08:30:33.297Z,99.90
2018-07-25T08:33:01.893Z,99.90
2018-07-25T08:35:30.078Z,99.90
2018-07-25T08:37:58.297Z,99.90
2018-07-25T08:40:34.276Z,99.90
2018-07-25T08:43:02.787Z,99.80
2018-07-25T08:45:31.036Z,99.60
2018-07-25T08:47:59.470Z,99.30
2018-07-25T08:50:27.812Z,98.10
2018-07-25T08:52:56.163Z,97.60
2018-07-25T08:55:27.396Z,97.50
2018-07-25T08:57:55.739Z,97.30
2018-07-25T09:00:23.983Z,97.30
2018-07-25T09:02:52.676Z,97.30
2018-07-25T09:05:21.006Z,97.10
2018-07-25T09:07:49.327Z,97.00
2018-07-25T09:10:17.679Z,94.30
2018-07-25T09:12:56.629Z,93.90
2018-07-25T09:15:24.785Z,93.80
2018-07-25T09:20:21.984Z,93.60
2018-07-25T09:22:50.235Z,93.20
2018-07-25T09:25:19.236Z,93.00
2018-07-25T09:27:50.264Z,93.60
2018-07-25T09:32:47.964Z,93.30
2018-07-25T09:35:16.172Z,93.00
2018-07-25T09:37:44.444Z,93.00
2018-07-25T09:40:12.687Z,92.70
2018-07-25T09:42:44.319Z,91.90
2018-07-25T09:45:12.535Z,92.00
2018-07-25T09:47:40.890Z,92.20
2018-07-25T09:50:10.300Z,91.70
2018-07-25T09:52:40.096Z,91.40
2018-07-25T09:55:09.741Z,91.10
2018-07-25T09:57:38.442Z,91.70
2018-07-25T10:00:09.674Z,91.40
2018-07-25T10:02:38.466Z,91.10
2018-07-25T10:05:07.127Z,90.70
2018-07-25T10:07:35.441Z,90.70
2018-07-25T10:10:03.695Z,90.60
2018-07-25T10:12:42.849Z,90.50
2018-07-25T10:15:11.970Z,90.30
2018-07-25T10:17:40.368Z,89.60
2018-07-25T10:20:08.824Z,90.60
2018-07-25T10:22:37.025Z,90.20
2018-07-25T10:25:05.325Z,90.50
2018-07-25T10:27:33.592Z,90.10
2018-07-25T10:34:59.429Z,87.50
2018-07-25T10:37:27.639Z,86.70
2018-07-25T10:42:27.402Z,86.20
2018-07-25T10:44:56.506Z,86.50
2018-07-25T10:47:24.759Z,84.80
2018-07-25T10:49:53.069Z,85.10
2018-07-25T10:52:21.310Z,85.40
2018-07-25T10:54:49.565Z,85.60
2018-07-25T10:57:21.480Z,85.90
2018-07-25T10:59:49.728Z,86.40
2018-07-25T11:02:18.133Z,86.30
2018-07-25T11:04:46.574Z,86.90
2018-07-25T11:07:14.939Z,84.20
2018-07-25T11:09:43.551Z,84.90
2018-07-25T11:12:11.722Z,86.30
2018-07-25T11:14:46.420Z,87.50
2018-07-25T11:17:14.694Z,86.00
2018-07-25T11:19:42.969Z,85.70
2018-07-25T11:24:40.014Z,84.60
2018-07-25T11:27:08.310Z,85.90
2018-07-25T11:29:37.150Z,85.40
2018-07-25T11:32:05.480Z,84.00
2018-07-25T11:34:33.768Z,83.30
2018-07-25T11:37:02.009Z,83.30
2018-07-25T11:39:30.332Z,83.30
2018-07-25T11:41:58.557Z,81.60
2018-07-25T11:44:26.807Z,81.60
2018-07-25T11:46:55.050Z,80.60
2018-07-25T11:49:23.318Z,80.80
2018-07-25T11:51:52.290Z,79.20
2018-07-25T11:54:20.692Z,81.10
2018-07-25T11:56:49.008Z,79.90
2018-07-25T11:59:20.685Z,79.60
2018-07-25T12:01:49.019Z,78.10
2018-07-25T12:04:17.203Z,78.00
2018-07-25T12:06:46.160Z,78.90
2018-07-25T12:09:14.435Z,78.80
2018-07-25T12:11:45.864Z,76.10
2018-07-25T12:14:19.829Z,76.80
2018-07-25T12:16:48.067Z,76.30
2018-07-25T12:19:16.891Z,75.00
2018-07-25T12:21:45.144Z,74.90
2018-07-25T12:24:13.411Z,74.00
2018-07-25T12:26:42.040Z,73.40
2018-07-25T12:29:10.249Z,72.90
2018-07-25T12:31:38.886Z,71.10
2018-07-25T12:34:07.107Z,70.20
2018-07-25T12:36:35.350Z,69.20
2018-07-25T12:39:04.322Z,68.70
2018-07-25T12:41:32.521Z,69.80
2018-07-25T12:44:12.079Z,70.20
2018-07-25T12:46:40.288Z,70.00
2018-07-25T12:49:08.537Z,68.80
2018-07-25T12:51:36.712Z,68.10
2018-07-25T12:54:05.363Z,67.90
2018-07-25T12:56:33.471Z,66.80
2018-07-25T12:59:01.721Z,66.80
2018-07-25T13:01:29.919Z,67.70
2018-07-25T13:03:58.200Z,64.00
2018-07-25T13:06:26.384Z,61.50
2018-07-25T13:08:54.667Z,59.90
2018-07-25T13:11:22.868Z,59.90
2018-07-25T13:13:51.071Z,60.50
2018-07-25T13:16:19.293Z,59.90
2018-07-25T13:18:47.550Z,59.40
2018-07-25T13:21:15.751Z,59.00
2018-07-25T13:23:44.096Z,58.70
2018-07-25T13:26:12.277Z,59.70
2018-07-25T13:28:40.539Z,60.60
2018-07-25T13:31:08.683Z,59.80
2018-07-25T13:33:36.928Z,58.70
2018-07-25T13:36:05.224Z,58.20
2018-07-25T13:38:33.387Z,58.50
2018-07-25T13:41:01.608Z,59.10
2018-07-25T13:43:29.782Z,58.90
2018-07-25T13:45:58.013Z,60.30
2018-07-25T13:48:26.223Z,59.70
2018-07-25T13:50:54.448Z,59.90
2018-07-25T13:53:22.707Z,59.20
2018-07-25T13:55:50.975Z,57.70
2018-07-25T13:58:19.224Z,57.40
2018-07-25T14:00:47.407Z,57.20
2018-07-25T14:03:19.172Z,58.00
2018-07-25T14:05:47.393Z,57.70
2018-07-25T14:08:15.699Z,57.50
2018-07-25T14:10:43.956Z,57.60
2018-07-25T14:13:12.280Z,57.90
2018-07-25T14:15:40.489Z,57.90
2018-07-25T14:18:08.833Z,58.10
2018-07-25T14:20:36.983Z,57.20
2018-07-25T14:23:05.571Z,57.50
2018-07-25T14:25:33.759Z,57.20
2018-07-25T14:28:01.995Z,57.90
2018-07-25T14:30:30.299Z,57.80
2018-07-25T14:32:58.413Z,57.60
2018-07-25T14:35:26.608Z,56.70
2018-07-25T14:37:54.824Z,56.30
2018-07-25T14:40:23.136Z,56.80
2018-07-25T14:42:51.251Z,56.20
2018-07-25T14:45:19.597Z,54.80
2018-07-25T14:47:47.817Z,54.50
2018-07-25T14:52:44.349Z,53.50
2018-07-25T14:55:12.573Z,54.00
2018-07-25T14:57:41.007Z,54.30
2018-07-25T15:00:09.739Z,54.70
2018-07-25T15:02:42.193Z,54.10
2018-07-25T15:05:10.443Z,55.30
2018-07-25T15:07:39.612Z,54.60
2018-07-25T15:10:07.892Z,53.70
2018-07-25T15:12:41.820Z,53.80
2018-07-25T15:15:11.402Z,53.30
2018-07-25T15:17:40.429Z,54.00
2018-07-25T15:20:13.027Z,54.10
2018-07-25T15:22:41.374Z,53.70
2018-07-25T15:25:09.971Z,54.60
2018-07-25T15:27:38.194Z,54.20
2018-07-25T15:30:07.848Z,55.10
2018-07-25T15:32:38.916Z,54.40
2018-07-25T15:35:07.603Z,54.70
2018-07-25T15:37:36.412Z,53.90
2018-07-25T15:40:05.280Z,53.90
2018-07-25T15:42:33.491Z,53.90
2018-07-25T15:45:01.730Z,53.20
2018-07-25T15:47:33.779Z,53.50
2018-07-25T15:50:08.527Z,53.80
2018-07-25T15:52:36.748Z,53.80
2018-07-25T15:55:05.023Z,53.80
2018-07-25T15:57:33.427Z,54.30
2018-07-25T16:00:01.668Z,54.60
2018-07-25T16:02:33.199Z,54.80
2018-07-25T16:07:29.388Z,54.80
2018-07-25T16:09:57.691Z,55.20
2018-07-25T16:12:26.135Z,54.70
2018-07-25T16:14:54.435Z,54.50
2018-07-25T16:17:22.747Z,54.70
2018-07-25T16:19:51.032Z,55.00
2018-07-25T16:22:19.340Z,54.90
2018-07-25T16:24:47.977Z,55.30
2018-07-25T16:27:17.313Z,55.30
2018-07-25T16:29:45.670Z,54.20
2018-07-25T16:32:13.911Z,52.50
2018-07-25T16:34:42.236Z,51.00
2018-07-25T16:37:10.768Z,51.00
2018-07-25T16:39:39.063Z,51.20
2018-07-25T16:42:07.614Z,50.00
2018-07-25T16:44:36.614Z,49.10
2018-07-25T16:47:05.048Z,49.20
2018-07-25T16:49:37.513Z,48.60
2018-07-25T16:52:05.722Z,47.90
2018-07-25T16:54:33.959Z,47.40
2018-07-25T16:59:30.270Z,45.80
2018-07-25T17:01:58.472Z,45.90
2018-07-25T17:04:30.207Z,45.30
2018-07-25T17:06:58.452Z,45.80
2018-07-25T17:09:27.070Z,44.40
2018-07-25T17:11:55.271Z,44.90
2018-07-25T17:14:23.692Z,44.70
2018-07-25T17:16:51.967Z,44.90
2018-07-25T17:19:23.164Z,44.60
2018-07-25T17:21:51.359Z,44.30
2018-07-25T17:24:20.588Z,42.60
2018-07-25T17:26:48.759Z,42.00
2018-07-25T17:29:16.984Z,40.90
2018-07-25T17:31:45.240Z,40.90
2018-07-25T17:34:13.458Z,41.40
2018-07-25T17:36:41.864Z,42.20
2018-07-25T17:39:11.249Z,40.70
2018-07-25T17:41:40.279Z,39.70
2018-07-25T17:44:08.591Z,39.70
2018-07-25T17:46:36.790Z,39.30
2018-07-25T17:49:08.008Z,38.90
2018-07-25T17:51:37.257Z,38.80
2018-07-25T17:54:05.608Z,39.10
2018-07-25T17:56:33.907Z,38.90
2018-07-25T17:59:02.138Z,39.60
2018-07-25T18:01:30.361Z,40.00
2018-07-25T18:03:58.600Z,39.80
2018-07-25T18:06:26.826Z,39.50
2018-07-25T18:08:55.348Z,39.60
2018-07-25T18:11:23.565Z,39.60
2018-07-25T18:13:57.198Z,40.50
2018-07-25T18:16:25.661Z,40.60
2018-07-25T18:18:54.414Z,41.60
2018-07-25T18:21:22.732Z,41.70
2018-07-25T18:23:51.878Z,42.10
2018-07-25T18:26:20.120Z,42.80
2018-07-25T18:28:48.383Z,43.10
2018-07-25T18:33:45.356Z,44.20
2018-07-25T18:36:13.589Z,44.80
2018-07-25T18:38:41.827Z,45.60
2018-07-25T18:41:10.465Z,46.60
2018-07-25T18:43:38.656Z,47.40
2018-07-25T18:46:06.969Z,49.20
2018-07-25T18:48:41.925Z,50.50
2018-07-25T18:51:16.019Z,51.50
2018-07-25T18:53:44.623Z,52.50
2018-07-25T18:56:20.105Z,53.40
2018-07-25T18:58:49.543Z,54.80
2018-07-25T19:01:17.966Z,55.00
2018-07-25T19:03:46.154Z,55.60
2018-07-25T19:06:14.432Z,56.10
2018-07-25T19:08:42.660Z,57.10
2018-07-25T19:11:11.063Z,59.00
2018-07-25T19:13:39.303Z,58.00
2018-07-25T19:16:07.513Z,60.20
2018-07-25T19:18:35.757Z,59.30
2018-07-25T19:21:03.970Z,61.20
2018-07-25T19:23:33.186Z,63.10
2018-07-25T19:26:01.517Z,65.20
2018-07-25T19:28:29.778Z,65.30
2018-07-25T19:30:58.389Z,66.20
2018-07-25T19:33:26.804Z,69.10
2018-07-25T19:35:59.442Z,68.80
2018-07-25T19:38:27.698Z,69.70
2018-07-25T19:40:55.948Z,69.20
2018-07-25T19:43:24.253Z,68.60
2018-07-25T19:45:52.479Z,71.50
2018-07-25T19:48:20.771Z,70.40
2018-07-25T19:50:48.978Z,68.90
2018-07-25T19:53:18.101Z,71.40
2018-07-25T19:55:46.411Z,71.20
2018-07-25T19:58:14.636Z,69.80
2018-07-25T20:00:43.276Z,70.40
2018-07-25T20:03:11.495Z,71.10
2018-07-25T20:05:39.969Z,71.00
2018-07-25T20:08:08.163Z,71.60
2018-07-25T20:10:36.382Z,73.40
2018-07-25T20:13:04.567Z,73.60
2018-07-25T20:15:38.251Z,73.70
2018-07-25T20:18:07.162Z,73.70
2018-07-25T20:20:35.389Z,75.50
2018-07-25T20:23:10.765Z,75.50
2018-07-25T20:25:39.231Z,75.00
2018-07-25T20:28:07.427Z,77.70
2018-07-25T20:30:35.671Z,79.20
2018-07-25T20:35:31.888Z,81.40
2018-07-25T20:40:31.874Z,81.00
2018-07-25T20:43:00.155Z,83.30
2018-07-25T20:45:29.039Z,84.70
2018-07-25T20:47:57.305Z,85.50
2018-07-25T20:50:25.555Z,86.70
2018-07-25T20:52:53.967Z,87.90
2018-07-25T20:55:22.136Z,88.30
2018-07-25T20:57:50.372Z,88.80
2018-07-25T21:00:22.879Z,89.60
2018-07-25T21:02:51.132Z,90.20
2018-07-25T21:05:19.325Z,88.80
2018-07-25T21:07:50.582Z,88.30
2018-07-25T21:10:19.460Z,90.60
2018-07-25T21:12:47.753Z,91.60
2018-07-25T21:15:15.970Z,92.50
2018-07-25T21:17:44.184Z,93.30
2018-07-25T21:22:40.441Z,94.30
2018-07-25T21:25:08.819Z,94.60
2018-07-25T21:27:37.371Z,95.40
2018-07-25T21:30:05.586Z,96.70
2018-07-25T21:32:33.978Z,97.80
2018-07-25T21:35:02.175Z,98.10
2018-07-25T21:37:30.700Z,98.70
2018-07-25T21:40:01.916Z,98.70
2018-07-25T21:42:30.137Z,99.40
2018-07-25T21:44:58.553Z,99.90
2018-07-25T21:47:26.788Z,99.90
2018-07-25T21:49:55.024Z,99.90
2018-07-25T21:52:23.208Z,99.90
2018-07-25T21:54:54.667Z,99.90
2018-07-25T21:57:23.563Z,99.90
2018-07-25T21:59:51.745Z,99.90
2018-07-25T22:02:19.959Z,99.90
2018-07-25T22:04:48.188Z,99.90
2018-07-25T22:07:16.372Z,99.90
2018-07-25T22:09:47.606Z,99.90
2018-07-25T22:12:15.856Z,99.90
2018-07-25T22:14:44.125Z,99.90
2018-07-25T22:17:12.411Z,99.90
2018-07-25T22:19:40.641Z,99.90
2018-07-25T22:22:08.841Z,99.90
2018-07-25T22:24:40.516Z,99.90
2018-07-25T22:27:08.716Z,99.90
2018-07-25T22:32:04.940Z,99.90
2018-07-25T22:34:33.235Z,99.90
2018-07-25T22:37:01.457Z,99.90
2018-07-25T22:39:33.551Z,99.90
2018-07-25T22:42:01.759Z,99.90
2018-07-25T22:44:29.999Z,99.90
2018-07-25T22:46:58.221Z,99.90
2018-07-25T22:49:26.452Z,99.90
2018-07-25T22:51:54.642Z,99.90
2018-07-25T22:54:25.771Z,99.90
2018-07-25T22:56:54.042Z,99.90
2018-07-25T22:59:23.143Z,99.90
2018-07-25T23:01:51.376Z,99.90
2018-07-25T23:04:19.579Z,99.90
2018-07-25T23:06:48.213Z,99.90
2018-07-25T23:09:20.233Z,99.90
2018-07-25T23:11:48.612Z,99.90
2018-07-25T23:14:16.931Z,99.90
2018-07-25T23:19:13.246Z,99.90
2018-07-25T23:21:41.500Z,99.90
2018-07-25T23:24:09.753Z,99.90
2018-07-25T23:26:42.261Z,99.90
2018-07-25T23:29:10.572Z,99.90
2018-07-25T23:31:38.808Z,99.90
2018-07-25T23:34:07.093Z,99.90
2018-07-25T23:36:35.260Z,99.90
2018-07-25T23:39:04.529Z,99.90
2018-07-25T23:41:33.408Z,99.90
2018-07-25T23:44:01.629Z,99.90
2018-07-25T23:46:29.865Z,99.90
2018-07-25T23:48:58.044Z,99.90
2018-07-25T23:51:26.276Z,99.90
2018-07-25T23:53:54.495Z,99.90
2018-07-25T23:56:22.799Z,99.90
2018-07-25T23:58:51.014Z,99.90
